This is the latest recevied weather packets stored in our database for station/object DC1NF-7. If no packets are shown the sender has not sent any weather packets the latest 10 day(s).
| Time | Temp. | Humidity | Pressure | Rain* | Wind** | Luminosity | Snow |
|---|---|---|---|---|---|---|---|
| 1777857325 | 12.78° C | 67% | 1014.9 hPa | 0 mm | - | 0 W/m² | - |
| 1777856725 | 12.78° C | 65% | 1015 hPa | 0 mm | - | 0 W/m² | - |
| 1777856120 | 13.33° C | 62% | 1014.9 hPa | 0 mm | - | 0 W/m² | - |
| 1777855576 | 13.89° C | 60% | 1015 hPa | 0 mm | - | 0 W/m² | - |
| 1777854978 | 13.89° C | 59% | 1015 hPa | 0 mm | - | 0 W/m² | - |
| 1777854366 | 13.33° C | 62% | 1014.9 hPa | 0 mm | - | 0 W/m² | - |
| 1777853764 | 13.89° C | 61% | 1014.9 hPa | 0 mm | - | 0 W/m² | - |
| 1777853164 | 14.44° C | 58% | 1014.8 hPa | 0 mm | - | 0 W/m² | - |
| 1777852557 | 15° C | 56% | 1014.9 hPa | 0 mm | - | 0 W/m² | - |
| 1777851954 | 16.11° C | 53% | 1014.8 hPa | 0 mm | - | 0 W/m² | - |
| 1777851350 | 16.11° C | 51% | 1014.7 hPa | 0 mm | - | 0 W/m² | - |
| 1777850745 | 16.11° C | 52% | 1014.7 hPa | 0 mm | - | 0 W/m² | - |
| 1777850142 | 16.67° C | 50% | 1014.8 hPa | 0 mm | - | 0 W/m² | - |
| 1777849541 | 16.67° C | 50% | 1014.6 hPa | 0 mm | - | 0 W/m² | - |
| 1777848934 | 17.22° C | 50% | 1014.8 hPa | 0 mm | - | 0 W/m² | - |
| 1777848335 | 17.78° C | 48% | 1014.6 hPa | 0 mm | - | 0 W/m² | - |
| 1777847727 | 17.78° C | 49% | 1014.4 hPa | 0 mm | - | 0 W/m² | - |
| 1777847124 | 17.78° C | 49% | 1014.5 hPa | 0 mm | - | 0 W/m² | - |
| 1777846519 | 17.78° C | 49% | 1014.4 hPa | 0 mm | - | 0 W/m² | - |
| 1777845915 | 18.33° C | 48% | 1014.1 hPa | 0 mm | - | 0 W/m² | - |
| 1777845371 | 17.78° C | 49% | 1014 hPa | 0 mm | - | 0 W/m² | - |
| 1777844767 | 17.22° C | 54% | 1014.3 hPa | 0 mm | - | 0 W/m² | - |
| 1777844166 | 16.11° C | 60% | 1014 hPa | 0 mm | - | 0 W/m² | - |
| 1777843560 | 15° C | 69% | 1014.1 hPa | 0 mm | - | 0 W/m² | - |
| 1777842957 | 15.56° C | 69% | 1014 hPa | 0 mm | - | 0 W/m² | - |
* Rain latest hour (hover to see other rain measurements)
** Current wind speed in m/s (hover to see current wind gust speed)